createdAt,value
2019-02-24T00:01:55.371Z,20.72
2019-02-24T00:04:25.736Z,18.95
2019-02-24T00:06:56.368Z,20.25
2019-02-24T00:09:27.063Z,19.98
2019-02-24T00:11:57.698Z,21.50
2019-02-24T00:14:28.082Z,22.62
2019-02-24T00:16:58.738Z,21.12
2019-02-24T00:19:29.365Z,20.45
2019-02-24T00:21:59.731Z,20.50
2019-02-24T00:24:30.432Z,20.30
2019-02-24T00:27:00.934Z,21.90
2019-02-24T00:29:32.160Z,20.10
2019-02-24T00:32:02.600Z,20.82
2019-02-24T00:34:33.257Z,22.07
2019-02-24T00:37:03.623Z,20.08
2019-02-24T00:39:34.038Z,19.17
2019-02-24T00:42:04.647Z,19.42
2019-02-24T00:44:35.576Z,20.40
2019-02-24T00:47:06.310Z,19.48
2019-02-24T00:49:36.946Z,18.57
2019-02-24T00:52:07.307Z,18.20
2019-02-24T00:54:38.974Z,17.30
2019-02-24T00:57:09.598Z,17.55
2019-02-24T00:59:40.528Z,18.17
2019-02-24T01:02:11.215Z,18.75
2019-02-24T01:04:41.849Z,19.32
2019-02-24T01:07:12.196Z,18.07
2019-02-24T01:09:43.153Z,18.02
2019-02-24T01:12:13.808Z,18.40
2019-02-24T01:14:44.291Z,16.48
2019-02-24T01:17:15.002Z,17.42
2019-02-24T01:19:45.609Z,18.48
2019-02-24T01:22:16.515Z,18.23
2019-02-24T01:24:47.168Z,18.12
2019-02-24T01:27:17.535Z,19.92
2019-02-24T01:29:48.441Z,19.37
2019-02-24T01:32:19.160Z,18.55
2019-02-24T01:34:49.847Z,19.07
2019-02-24T01:37:20.189Z,20.62
2019-02-24T01:39:51.106Z,21.05
2019-02-24T01:42:21.769Z,18.77
2019-02-24T01:44:52.135Z,17.55
2019-02-24T01:47:22.803Z,16.60
2019-02-24T01:49:53.428Z,16.00
2019-02-24T01:52:24.030Z,17.35
2019-02-24T01:54:54.678Z,15.93
2019-02-24T01:57:25.017Z,15.20
2019-02-24T01:59:56.129Z,15.63
2019-02-24T02:02:26.554Z,13.90
2019-02-24T02:04:58.524Z,15.53
2019-02-24T02:07:28.968Z,15.70
2019-02-24T02:09:59.309Z,14.33
2019-02-24T02:12:30.184Z,16.40
2019-02-24T02:15:00.531Z,16.02
2019-02-24T02:17:31.237Z,14.70
2019-02-24T02:20:02.093Z,15.50
2019-02-24T02:22:32.729Z,15.03
2019-02-24T02:25:03.918Z,15.23
2019-02-24T02:27:34.542Z,16.37
2019-02-24T02:30:07.758Z,15.45
2019-02-24T02:32:38.160Z,15.00
2019-02-24T02:35:09.121Z,14.58
2019-02-24T02:37:39.817Z,16.07
2019-02-24T02:40:10.822Z,14.63
2019-02-24T02:42:41.464Z,15.23
2019-02-24T02:45:12.098Z,13.95
2019-02-24T02:47:42.814Z,16.02
2019-02-24T02:50:13.163Z,15.93
2019-02-24T02:52:43.874Z,15.28
2019-02-24T02:55:14.634Z,15.20
2019-02-24T02:57:45.245Z,17.15
2019-02-24T03:00:33.525Z,17.17
2019-02-24T03:03:04.422Z,15.32
2019-02-24T03:05:34.872Z,15.55
2019-02-24T03:08:10.401Z,15.88
2019-02-24T03:10:40.775Z,16.87
2019-02-24T03:13:11.149Z,15.45
2019-02-24T03:15:41.619Z,14.20
2019-02-24T03:18:11.957Z,14.95
2019-02-24T03:20:42.853Z,15.80
2019-02-24T03:23:13.505Z,15.43
2019-02-24T03:25:43.845Z,15.40
2019-02-24T03:28:14.211Z,16.85
2019-02-24T03:30:44.611Z,17.02
2019-02-24T03:33:15.255Z,16.67
2019-02-24T03:35:45.884Z,15.80
2019-02-24T03:38:16.538Z,15.78
2019-02-24T03:40:47.207Z,15.80
2019-02-24T03:43:17.831Z,16.37
2019-02-24T03:45:48.204Z,16.95
2019-02-24T03:48:18.842Z,16.97
2019-02-24T03:50:49.178Z,15.65
2019-02-24T03:53:20.094Z,15.95
2019-02-24T03:55:51.129Z,16.30
2019-02-24T03:58:22.227Z,17.55
2019-02-24T04:00:52.893Z,16.37
2019-02-24T04:03:23.545Z,15.95
2019-02-24T04:05:54.551Z,16.20
2019-02-24T04:08:24.930Z,16.25
2019-02-24T04:10:55.279Z,15.10
2019-02-24T04:13:26.156Z,16.10
2019-02-24T04:15:56.777Z,16.32
2019-02-24T04:18:27.133Z,17.10
2019-02-24T04:20:57.761Z,16.07
2019-02-24T04:23:28.677Z,16.00
2019-02-24T04:25:59.014Z,15.95
2019-02-24T04:28:29.623Z,16.85
2019-02-24T04:30:59.984Z,14.47
2019-02-24T04:33:30.628Z,16.07
2019-02-24T04:36:01.001Z,14.73
2019-02-24T04:38:31.694Z,16.00
2019-02-24T04:41:02.292Z,15.10
2019-02-24T04:43:33.011Z,15.35
2019-02-24T04:46:03.411Z,14.58
2019-02-24T04:48:34.044Z,15.32
2019-02-24T04:51:04.390Z,16.15
2019-02-24T04:53:35.120Z,14.98
2019-02-24T04:56:05.777Z,14.95
2019-02-24T04:58:36.443Z,14.85
2019-02-24T05:01:06.846Z,14.93
2019-02-24T05:03:37.485Z,15.48
2019-02-24T05:06:08.117Z,15.10
2019-02-24T05:08:39.177Z,16.95
2019-02-24T05:11:09.807Z,14.85
2019-02-24T05:13:40.547Z,17.02
2019-02-24T05:16:10.963Z,14.80
2019-02-24T05:18:41.302Z,16.00
2019-02-24T05:21:11.917Z,14.47
2019-02-24T05:23:43.252Z,15.70
2019-02-24T05:26:13.840Z,14.63
2019-02-24T05:28:44.456Z,15.30
2019-02-24T05:31:14.874Z,16.27
2019-02-24T05:33:45.215Z,15.35
2019-02-24T05:36:15.876Z,16.65
2019-02-24T05:38:46.258Z,16.93
2019-02-24T05:41:16.609Z,15.03
2019-02-24T05:43:47.232Z,15.75
2019-02-24T05:46:17.899Z,16.27
2019-02-24T05:48:48.272Z,16.42
2019-02-24T05:51:18.934Z,16.30
2019-02-24T05:53:49.612Z,15.68
2019-02-24T05:56:20.487Z,15.05
2019-02-24T05:58:51.107Z,14.60
2019-02-24T06:01:21.858Z,14.25
2019-02-24T06:03:52.790Z,15.08
2019-02-24T06:06:23.442Z,13.95
2019-02-24T06:08:54.095Z,15.25
2019-02-24T06:11:24.758Z,16.05
2019-02-24T06:13:55.382Z,15.70
2019-02-24T06:16:26.282Z,15.15
2019-02-24T06:18:56.642Z,13.62
2019-02-24T06:21:27.278Z,13.93
2019-02-24T06:23:57.952Z,13.85
2019-02-24T06:26:30.144Z,14.47
2019-02-24T06:29:00.379Z,15.53
2019-02-24T06:31:30.889Z,14.23
2019-02-24T06:34:01.257Z,14.70
2019-02-24T06:36:31.634Z,14.70
2019-02-24T06:39:02.075Z,13.20
2019-02-24T06:41:32.403Z,13.83
2019-02-24T06:44:02.881Z,15.53
2019-02-24T06:46:33.525Z,15.00
2019-02-24T06:49:03.895Z,15.63
2019-02-24T06:51:34.266Z,13.70
2019-02-24T06:54:05.101Z,14.15
2019-02-24T06:56:35.472Z,15.43
2019-02-24T06:59:06.341Z,13.95
2019-02-24T07:01:36.746Z,14.33
2019-02-24T07:04:07.393Z,13.78
2019-02-24T07:06:37.725Z,14.95
2019-02-24T07:09:08.331Z,14.35
2019-02-24T07:11:38.690Z,13.53
2019-02-24T07:14:09.055Z,13.65
2019-02-24T07:16:39.728Z,14.20
2019-02-24T07:19:10.343Z,14.63
2019-02-24T07:21:40.967Z,13.88
2019-02-24T07:24:11.371Z,15.05
2019-02-24T07:26:41.734Z,13.32
2019-02-24T07:29:12.992Z,14.40
2019-02-24T07:31:43.717Z,13.20
2019-02-24T07:34:14.089Z,14.40
2019-02-24T07:36:44.701Z,13.85
2019-02-24T07:39:15.512Z,14.13
2019-02-24T07:41:46.099Z,13.43
2019-02-24T07:44:16.801Z,14.28
2019-02-24T07:46:47.182Z,14.30
2019-02-24T07:49:17.507Z,14.00
2019-02-24T07:51:47.832Z,14.10
2019-02-24T07:54:18.501Z,15.45
2019-02-24T07:56:49.141Z,15.15
2019-02-24T07:59:19.485Z,13.95
2019-02-24T08:01:49.831Z,14.35
2019-02-24T08:04:20.225Z,15.53
2019-02-24T08:06:50.844Z,15.35
2019-02-24T08:09:21.218Z,15.78
2019-02-24T08:11:51.546Z,15.35
2019-02-24T08:14:21.938Z,13.53
2019-02-24T08:16:52.295Z,14.45
2019-02-24T08:19:22.666Z,15.40
2019-02-24T08:21:53.341Z,13.83
2019-02-24T08:24:24.009Z,14.20
2019-02-24T08:26:54.368Z,12.95
2019-02-24T08:29:25.012Z,13.18
2019-02-24T08:31:55.947Z,12.13
2019-02-24T08:34:26.850Z,12.03
2019-02-24T08:36:57.234Z,11.83
2019-02-24T08:39:27.609Z,11.25
2019-02-24T08:41:58.607Z,11.48
2019-02-24T08:44:29.026Z,12.07
2019-02-24T08:46:59.386Z,12.33
2019-02-24T08:49:30.011Z,12.63
2019-02-24T08:52:00.415Z,11.93
2019-02-24T08:54:31.068Z,11.88
2019-02-24T08:57:01.719Z,13.65
2019-02-24T08:59:32.616Z,13.48
2019-02-24T09:02:03.569Z,12.00
2019-02-24T09:04:34.220Z,12.37
2019-02-24T09:07:04.607Z,11.97
2019-02-24T09:09:35.024Z,12.15
2019-02-24T09:12:05.373Z,12.07
2019-02-24T09:14:35.752Z,12.90
2019-02-24T09:17:06.237Z,12.80
2019-02-24T09:19:36.796Z,11.30
2019-02-24T09:22:07.565Z,12.47
2019-02-24T09:24:37.954Z,12.23
2019-02-24T09:27:08.345Z,11.57
2019-02-24T09:29:39.041Z,11.78
2019-02-24T09:32:09.658Z,12.35
2019-02-24T09:34:40.270Z,11.95
2019-02-24T09:37:13.388Z,11.80
2019-02-24T09:39:44.028Z,12.07
2019-02-24T09:42:14.462Z,9.95
2019-02-24T09:44:45.249Z,11.73
2019-02-24T09:47:15.852Z,12.03
2019-02-24T09:49:46.449Z,12.23
2019-02-24T09:52:17.093Z,11.25
2019-02-24T09:54:47.824Z,12.75
2019-02-24T09:57:18.432Z,15.60
2019-02-24T09:59:48.804Z,14.28
2019-02-24T10:02:19.461Z,11.45
2019-02-24T10:04:49.895Z,12.55
2019-02-24T10:07:20.567Z,14.85
2019-02-24T10:09:50.899Z,15.03
2019-02-24T10:12:21.278Z,13.85
2019-02-24T10:14:51.700Z,14.75
2019-02-24T10:17:22.921Z,13.05
2019-02-24T10:19:53.802Z,13.25
2019-02-24T10:22:24.167Z,14.40
2019-02-24T10:24:54.843Z,12.88
2019-02-24T10:27:25.196Z,14.43
2019-02-24T10:29:55.671Z,12.50
2019-02-24T10:32:26.104Z,12.80
2019-02-24T10:34:56.458Z,13.15
2019-02-24T10:37:27.106Z,15.13
2019-02-24T10:39:58.047Z,11.60
2019-02-24T10:42:28.656Z,12.65
2019-02-24T10:44:59.357Z,13.88
2019-02-24T10:47:29.734Z,10.93
2019-02-24T10:50:00.099Z,11.33
2019-02-24T10:52:30.825Z,11.38
2019-02-24T10:55:01.144Z,11.12
2019-02-24T10:57:31.912Z,16.45
2019-02-24T11:00:02.553Z,11.60
2019-02-24T11:02:32.916Z,11.88
2019-02-24T11:05:04.121Z,11.35
2019-02-24T11:07:34.482Z,13.08
2019-02-24T11:10:07.932Z,11.30
2019-02-24T11:12:38.349Z,9.98
2019-02-24T11:15:12.155Z,10.63
2019-02-24T11:17:42.784Z,10.68
2019-02-24T11:20:18.598Z,9.15
2019-02-24T11:22:48.933Z,9.78
2019-02-24T11:25:19.263Z,9.15
2019-02-24T11:27:49.933Z,9.30
2019-02-24T11:30:20.545Z,9.20
2019-02-24T11:32:51.041Z,8.93
2019-02-24T11:35:22.154Z,8.23
2019-02-24T11:37:52.578Z,8.73
2019-02-24T11:40:23.008Z,8.30
2019-02-24T11:42:53.649Z,10.10
2019-02-24T11:45:24.342Z,8.00
2019-02-24T11:47:54.822Z,8.17
2019-02-24T11:50:25.586Z,10.63
2019-02-24T11:52:55.964Z,9.27
2019-02-24T11:55:26.607Z,8.80
2019-02-24T11:57:57.296Z,9.67
2019-02-24T12:00:27.980Z,8.47
2019-02-24T12:02:58.303Z,8.37
2019-02-24T12:05:28.804Z,7.63
2019-02-24T12:07:59.163Z,8.13
2019-02-24T12:10:29.527Z,9.63
2019-02-24T12:12:59.939Z,9.10
2019-02-24T12:15:30.532Z,9.37
2019-02-24T12:18:00.903Z,9.70
2019-02-24T12:20:31.482Z,7.50
2019-02-24T12:23:01.808Z,8.00
2019-02-24T12:25:32.182Z,11.00
2019-02-24T12:28:02.859Z,9.47
2019-02-24T12:30:33.478Z,8.93
2019-02-24T12:33:04.159Z,12.37
2019-02-24T12:35:34.805Z,8.67
2019-02-24T12:38:05.402Z,8.77
2019-02-24T12:40:36.269Z,7.53
2019-02-24T12:43:06.666Z,7.80
2019-02-24T12:45:37.258Z,8.57
2019-02-24T12:48:07.879Z,7.70
2019-02-24T12:50:38.286Z,7.67
2019-02-24T12:53:08.915Z,8.40
2019-02-24T12:55:39.537Z,8.30
2019-02-24T12:58:09.881Z,8.50
2019-02-24T13:00:40.227Z,8.30
2019-02-24T13:03:10.591Z,7.27
2019-02-24T13:05:41.077Z,7.57
2019-02-24T13:08:11.814Z,6.93
2019-02-24T13:10:42.800Z,7.23
2019-02-24T13:13:13.149Z,6.90
2019-02-24T13:15:43.776Z,7.57
2019-02-24T13:18:14.123Z,7.43
2019-02-24T13:20:44.539Z,7.77
2019-02-24T13:23:15.389Z,7.03
2019-02-24T13:25:45.737Z,7.00
2019-02-24T13:28:16.436Z,7.87
2019-02-24T13:30:46.810Z,6.80
2019-02-24T13:33:17.468Z,7.60
2019-02-24T13:35:47.892Z,7.47
2019-02-24T13:38:18.253Z,8.03
2019-02-24T13:40:48.912Z,7.93
2019-02-24T13:43:19.327Z,7.77
2019-02-24T13:45:49.699Z,7.90
2019-02-24T13:48:20.059Z,7.67
2019-02-24T13:50:50.463Z,7.40
2019-02-24T13:53:20.835Z,6.70
2019-02-24T13:55:51.198Z,7.80
2019-02-24T13:58:23.705Z,6.70
2019-02-24T14:00:54.824Z,7.50
2019-02-24T14:03:25.441Z,6.70
2019-02-24T14:05:56.360Z,6.83
2019-02-24T14:08:27.777Z,6.57
2019-02-24T14:10:58.383Z,5.60
2019-02-24T14:13:28.766Z,6.10
2019-02-24T14:15:59.663Z,6.30
2019-02-24T14:18:30.307Z,6.30
2019-02-24T14:21:01.342Z,6.43
2019-02-24T14:23:31.688Z,6.53
2019-02-24T14:26:02.264Z,5.67
2019-02-24T14:28:32.651Z,6.37
2019-02-24T14:31:03.083Z,6.27
2019-02-24T14:33:33.738Z,6.30
2019-02-24T14:36:04.433Z,6.30
2019-02-24T14:38:35.052Z,6.10
2019-02-24T14:41:05.703Z,5.90
2019-02-24T14:43:36.367Z,6.03
2019-02-24T14:46:07.007Z,5.67
2019-02-24T14:48:37.633Z,5.70
2019-02-24T14:51:08.311Z,5.07
2019-02-24T14:53:38.915Z,6.00
2019-02-24T14:56:09.529Z,5.23
2019-02-24T14:58:40.225Z,5.60
2019-02-24T15:01:10.590Z,5.53
2019-02-24T15:03:41.256Z,5.40
2019-02-24T15:06:12.188Z,5.10
2019-02-24T15:08:42.570Z,5.33
2019-02-24T15:11:12.992Z,6.20
2019-02-24T15:13:43.402Z,5.70
2019-02-24T15:16:14.335Z,5.90
2019-02-24T15:18:44.961Z,5.90
2019-02-24T15:21:16.000Z,5.70
2019-02-24T15:23:46.635Z,4.93
2019-02-24T15:26:17.545Z,4.90
2019-02-24T15:28:48.112Z,5.93
2019-02-24T15:31:18.466Z,4.70
2019-02-24T15:33:48.830Z,5.03
2019-02-24T15:36:19.273Z,6.60
2019-02-24T15:38:49.597Z,5.93
2019-02-24T15:41:29.316Z,5.30
2019-02-24T15:43:52.022Z,6.40
2019-02-24T15:46:22.906Z,5.67
2019-02-24T15:48:53.239Z,5.60
2019-02-24T15:51:24.194Z,5.30
2019-02-24T15:53:54.521Z,5.40
2019-02-24T15:56:25.117Z,5.83
2019-02-24T15:58:55.765Z,5.80
2019-02-24T16:01:26.396Z,5.67
2019-02-24T16:03:57.060Z,5.57
2019-02-24T16:06:27.446Z,6.17
2019-02-24T16:08:57.786Z,6.20
2019-02-24T16:11:28.467Z,6.37
2019-02-24T16:13:59.136Z,9.30
2019-02-24T16:16:29.998Z,7.50
2019-02-24T16:19:00.342Z,8.00
2019-02-24T16:21:31.277Z,8.30
2019-02-24T16:24:01.929Z,8.80
2019-02-24T16:26:32.636Z,8.00
2019-02-24T16:29:03.004Z,8.07
2019-02-24T16:31:33.366Z,11.60
2019-02-24T16:34:04.250Z,12.10
2019-02-24T16:36:34.908Z,13.53
2019-02-24T16:39:05.238Z,7.87
2019-02-24T16:41:35.856Z,6.37
2019-02-24T16:44:06.508Z,6.90
2019-02-24T16:46:36.875Z,8.53
2019-02-24T16:49:07.505Z,10.38
2019-02-24T16:51:38.142Z,13.60
2019-02-24T16:54:08.812Z,12.73
2019-02-24T16:56:39.430Z,8.93
2019-02-24T16:59:10.127Z,7.00
2019-02-24T17:01:40.654Z,7.87
2019-02-24T17:04:11.013Z,7.08
2019-02-24T17:06:41.525Z,7.22
2019-02-24T17:09:12.158Z,7.87
2019-02-24T17:11:42.814Z,8.20
2019-02-24T17:14:13.471Z,8.35
2019-02-24T17:16:44.477Z,9.08
2019-02-24T17:19:14.834Z,8.78
2019-02-24T17:21:45.527Z,9.40
2019-02-24T17:24:15.901Z,32.40
2019-02-24T17:26:46.269Z,9.90
2019-02-24T17:29:17.006Z,7.90
2019-02-24T17:31:47.333Z,8.93
2019-02-24T17:34:17.699Z,8.05
2019-02-24T17:36:48.941Z,7.78
2019-02-24T17:39:19.577Z,8.30
2019-02-24T17:41:50.011Z,7.60
2019-02-24T17:44:20.667Z,10.15
2019-02-24T17:46:51.281Z,11.55
2019-02-24T17:49:21.625Z,9.85
2019-02-24T17:51:52.047Z,10.25
2019-02-24T17:54:22.371Z,9.48
2019-02-24T17:56:53.023Z,10.35
2019-02-24T17:59:23.712Z,10.45
2019-02-24T18:01:54.064Z,11.73
2019-02-24T18:04:24.422Z,10.98
2019-02-24T18:06:54.835Z,13.00
2019-02-24T18:09:25.167Z,10.85
2019-02-24T18:11:55.779Z,10.80
2019-02-24T18:14:26.430Z,10.80
2019-02-24T18:16:57.107Z,11.53
2019-02-24T18:19:27.786Z,11.40
2019-02-24T18:21:58.528Z,11.73
2019-02-24T18:24:28.882Z,11.40
2019-02-24T18:26:59.475Z,10.85
2019-02-24T18:29:30.126Z,12.90
2019-02-24T18:32:00.737Z,12.53
2019-02-24T18:34:31.246Z,12.28
2019-02-24T18:37:02.206Z,12.73
2019-02-24T18:39:32.846Z,13.50
2019-02-24T18:42:03.484Z,13.55
2019-02-24T18:44:34.174Z,13.78
2019-02-24T18:47:04.822Z,14.35
2019-02-24T18:49:35.728Z,13.53
2019-02-24T18:52:06.218Z,13.75
2019-02-24T18:54:36.573Z,16.10
2019-02-24T18:57:06.934Z,25.05
2019-02-24T18:59:37.553Z,15.93
2019-02-24T19:02:08.568Z,15.55
2019-02-24T19:04:38.897Z,13.98
2019-02-24T19:07:09.641Z,12.90
2019-02-24T19:09:39.969Z,14.07
2019-02-24T19:12:10.446Z,13.50
2019-02-24T19:14:40.852Z,12.80
2019-02-24T19:17:11.204Z,11.48
2019-02-24T19:19:43.161Z,12.25
2019-02-24T19:22:13.825Z,12.20
2019-02-24T19:24:44.719Z,12.73
2019-02-24T19:27:15.370Z,12.88
2019-02-24T19:29:46.038Z,13.98
2019-02-24T19:32:16.629Z,13.85
2019-02-24T19:34:47.217Z,15.78
2019-02-24T19:37:17.587Z,18.40
2019-02-24T19:39:48.221Z,17.62
2019-02-24T19:46:00.047Z,15.45
2019-02-24T19:48:30.728Z,14.30
2019-02-24T19:51:01.082Z,14.58
2019-02-24T19:53:31.458Z,12.37
2019-02-24T19:56:01.791Z,10.55
2019-02-24T19:58:32.179Z,10.55
2019-02-24T20:01:04.404Z,9.28
2019-02-24T20:03:35.023Z,10.68
2019-02-24T20:06:05.695Z,10.15
2019-02-24T20:08:36.831Z,8.70
2019-02-24T20:11:07.152Z,10.48
2019-02-24T20:13:37.540Z,8.85
2019-02-24T20:16:10.846Z,9.08
2019-02-24T20:18:41.757Z,10.75
2019-02-24T20:21:12.410Z,10.15
2019-02-24T20:23:43.061Z,9.23
2019-02-24T20:26:13.486Z,10.18
2019-02-24T20:28:43.830Z,11.10
2019-02-24T20:31:14.777Z,10.65
2019-02-24T20:33:45.681Z,10.50
2019-02-24T20:36:16.092Z,10.10
2019-02-24T20:38:46.896Z,10.58
2019-02-24T20:41:17.279Z,10.88
2019-02-24T20:43:47.882Z,10.08
2019-02-24T20:46:18.212Z,10.23
2019-02-24T20:48:48.615Z,10.55
2019-02-24T20:51:19.221Z,10.45
2019-02-24T20:53:49.735Z,11.80
2019-02-24T20:56:20.863Z,10.63
2019-02-24T20:58:51.279Z,11.03
2019-02-24T21:01:21.909Z,10.80
2019-02-24T21:03:52.339Z,10.82
2019-02-24T21:06:22.967Z,11.55
2019-02-24T21:08:54.172Z,12.05
2019-02-24T21:11:24.818Z,10.60
2019-02-24T21:13:55.175Z,11.80
2019-02-24T21:16:26.081Z,10.38
2019-02-24T21:18:56.465Z,10.45
2019-02-24T21:21:26.896Z,11.35
2019-02-24T21:23:57.808Z,11.68
2019-02-24T21:26:28.207Z,10.98
2019-02-24T21:28:58.571Z,11.45
2019-02-24T21:31:29.186Z,11.22
2019-02-24T21:33:59.602Z,11.33
2019-02-24T21:36:29.972Z,10.70
2019-02-24T21:39:00.365Z,11.83
2019-02-24T21:41:30.993Z,10.68
2019-02-24T21:44:02.419Z,11.08
2019-02-24T21:46:32.826Z,10.60
2019-02-24T21:49:03.217Z,11.05
2019-02-24T21:51:34.155Z,12.05
2019-02-24T21:54:04.779Z,12.45
2019-02-24T21:56:35.397Z,12.33
2019-02-24T21:59:10.609Z,11.20
2019-02-24T22:01:41.191Z,11.50
2019-02-24T22:04:11.542Z,11.80
2019-02-24T22:06:42.177Z,12.30
2019-02-24T22:09:13.063Z,11.78
2019-02-24T22:11:43.542Z,11.97
2019-02-24T22:14:13.928Z,11.57
2019-02-24T22:16:44.286Z,12.45
2019-02-24T22:19:14.661Z,10.18
2019-02-24T22:21:44.988Z,11.50
2019-02-24T22:24:15.372Z,10.95
2019-02-24T22:26:45.919Z,11.33
2019-02-24T22:29:16.275Z,10.80
2019-02-24T22:31:46.997Z,11.03
2019-02-24T22:34:17.385Z,10.30
2019-02-24T22:36:48.008Z,9.95
2019-02-24T22:39:18.662Z,9.98
2019-02-24T22:41:49.022Z,10.30
2019-02-24T22:44:19.372Z,9.35
2019-02-24T22:46:50.012Z,10.30
2019-02-24T22:49:20.633Z,10.53
2019-02-24T22:51:51.383Z,11.50
2019-02-24T22:54:21.990Z,9.70
2019-02-24T22:56:52.602Z,10.05
2019-02-24T22:59:23.268Z,9.38
2019-02-24T23:01:53.972Z,11.60
2019-02-24T23:04:24.397Z,10.82
2019-02-24T23:06:54.800Z,11.20
2019-02-24T23:09:25.141Z,11.08
2019-02-24T23:11:55.771Z,10.78
2019-02-24T23:14:26.376Z,11.00
2019-02-24T23:16:57.068Z,12.18
2019-02-24T23:19:27.415Z,11.00
2019-02-24T23:21:58.070Z,10.63
2019-02-24T23:24:28.658Z,10.85
2019-02-24T23:26:59.310Z,11.22
2019-02-24T23:29:29.966Z,12.07
2019-02-24T23:32:00.356Z,9.85
2019-02-24T23:34:30.691Z,10.40
2019-02-24T23:37:01.050Z,10.45
2019-02-24T23:39:31.528Z,11.15
2019-02-24T23:42:02.443Z,10.72
2019-02-24T23:44:32.899Z,10.03
2019-02-24T23:47:03.507Z,11.08
2019-02-24T23:49:34.124Z,10.88
2019-02-24T23:52:04.476Z,9.38
2019-02-24T23:54:35.107Z,11.00
2019-02-24T23:57:05.715Z,10.00
2019-02-24T23:59:36.356Z,10.10
